Terminal Aerodrome Forecast
Issued by NWS New Orleans/Baton Rouge, LA

Home | Current Version | Previous Version | Text Only | Print | Product List | Glossary On
Versions: 1 2 3 4 5 6 7 8 9 10 11 12 13
000
FTUS44 KLIX 301100 RRA
TAFBTR
TAF
KBTR 301140Z 3012/3112 10005KT P6SM FEW010 SCT035
     FM301500 17010KT P6SM VCSH BKN025 OVC050
      TEMPO 3016/3020 3SM TSRA BR BKN020CB
     FM310100 18006KT P6SM SCT018 BKN050=

USA.gov is the U.S. government's official web portal to all federal, state and local government web resources and services.